Time;durP1;ratioP1;P1;durP2;ratioP2;P2;SDS_P1;SDS_P2;PMS_P1;PMS_P2;Temp;Humidity;BMP_temperature;BMP_pressure;BME280_temperature;BME280_humidity;BME280_pressure;Samples;Min_cycle;Max_cycle;Signal;HPM_P1;HPM_P2
2023/03/20 00:00:47;;;;;;;4.80;4.07;;;;;;;7.95;100.00;98805.28;4118128;28;20218;-48
2023/03/20 00:02:48;;;;;;;3.75;3.45;;;;;;;7.97;100.00;98811.31;4137663;28;20240;-48
2023/03/20 00:04:50;;;;;;;8.30;5.05;;;;;;;8.00;100.00;98816.31;4112194;28;20253;-48
2023/03/20 00:06:52;;;;;;;4.60;4.22;;;;;;;8.00;100.00;98821.75;4127019;28;20306;-47
2023/03/20 00:08:56;;;;;;;4.40;4.10;;;;;;;8.03;100.00;98815.88;4123860;28;20234;-48
2023/03/20 00:10:57;;;;;;;5.35;4.90;;;;;;;8.03;100.00;98811.25;4136030;28;20210;-49
2023/03/20 00:13:00;;;;;;;3.85;3.53;;;;;;;8.04;100.00;98820.25;4121030;28;20277;-48
2023/03/20 00:15:04;;;;;;;4.20;3.90;;;;;;;8.03;100.00;98811.25;4136564;28;20232;-48
2023/03/20 00:17:18;;;;;;;3.63;3.33;;;;;;;8.06;100.00;98815.41;4119545;28;20245;-48
2023/03/20 00:19:23;;;;;;;4.25;3.95;;;;;;;8.05;100.00;98811.03;4119316;28;20610;-49
2023/03/20 00:21:25;;;;;;;4.35;3.75;;;;;;;8.06;100.00;98815.41;4138100;28;20229;-48
2023/03/20 00:23:27;;;;;;;3.03;2.83;;;;;;;8.08;100.00;98818.75;4118813;28;20227;-48
2023/03/20 00:25:28;;;;;;;4.00;3.60;;;;;;;8.09;100.00;98823.16;4125650;28;20210;-48
2023/03/20 00:27:30;;;;;;;4.78;3.55;;;;;;;8.15;100.00;98824.97;4119769;28;20217;-48
2023/03/20 00:29:33;;;;;;;3.80;3.50;;;;;;;8.31;100.00;98824.38;4126473;28;20236;-48
2023/03/20 00:31:36;;;;;;;7.32;6.75;;;;;;;8.20;100.00;98819.69;4122473;28;20680;-48
2023/03/20 00:33:38;;;;;;;5.72;5.35;;;;;;;8.16;100.00;98821.19;4136542;28;20236;-48
2023/03/20 00:35:43;;;;;;;3.88;3.58;;;;;;;8.24;100.00;98829.06;4120602;28;20206;-49
2023/03/20 00:37:45;;;;;;;9.73;9.02;;;;;;;8.30;100.00;98828.16;4121042;28;20224;-48
2023/03/20 00:39:46;;;;;;;7.10;6.60;;;;;;;8.23;100.00;98832.88;4136577;28;20248;-48
2023/03/20 00:41:54;;;;;;;7.72;7.22;;;;;;;8.21;100.00;98835.81;4110950;28;20293;-48
2023/03/20 00:44:01;;;;;;;10.23;9.43;;;;;;;8.26;100.00;98835.13;4136321;28;20233;-48
2023/03/20 00:46:03;;;;;;;9.98;9.10;;;;;;;8.26;100.00;98832.41;4124883;28;20752;-48
2023/03/20 00:48:05;;;;;;;9.75;9.05;;;;;;;8.23;100.00;98830.13;4118689;28;20599;-48
2023/03/20 00:50:34;;;;;;;9.05;8.25;;;;;;;8.23;100.00;98833.69;4121615;28;20205;-48
2023/03/20 00:52:36;;;;;;;9.15;8.40;;;;;;;8.25;100.00;98830.75;4117954;28;20281;-48
2023/03/20 00:54:37;;;;;;;8.65;7.95;;;;;;;8.26;100.00;98833.25;4123546;28;20313;-47
2023/03/20 00:56:42;;;;;;;10.07;9.18;;;;;;;8.33;100.00;98828.53;4120371;28;20633;-48
2023/03/20 00:58:43;;;;;;;9.63;8.73;;;;;;;8.35;100.00;98831.06;4135780;28;20202;-48
2023/03/20 01:00:45;;;;;;;8.73;8.13;;;;;;;8.30;100.00;98828.16;4118426;28;20297;-48
2023/03/20 01:02:47;;;;;;;7.97;7.38;;;;;;;8.31;100.00;98829.81;4107024;28;20211;-48
2023/03/20 01:04:48;;;;;;;8.98;8.23;;;;;;;8.31;100.00;98832.56;4120937;28;20214;-47
2023/03/20 01:06:51;;;;;;;8.23;7.63;;;;;;;8.37;100.00;98835.22;4134251;28;20297;-47
2023/03/20 01:08:56;;;;;;;8.57;7.90;;;;;;;8.31;100.00;98832.56;4118969;28;20207;-48
2023/03/20 01:10:58;;;;;;;6.85;6.28;;;;;;;8.30;100.00;98834.44;4126103;28;20712;-48
2023/03/20 01:13:02;;;;;;;7.68;6.97;;;;;;;8.32;100.00;98842.41;4126713;28;20268;-48
2023/03/20 01:15:16;;;;;;;7.38;6.78;;;;;;;8.30;100.00;98839.88;4120861;28;20276;-49
2023/03/20 01:17:19;;;;;;;6.15;5.28;;;;;;;8.29;100.00;98832.78;4121103;28;20689;-48
2023/03/20 01:19:21;;;;;;;6.15;5.72;;;;;;;8.32;100.00;98845.97;4124580;28;20724;-48
2023/03/20 01:21:23;;;;;;;6.75;6.25;;;;;;;8.31;100.00;98848.91;4119296;28;20648;-49
2023/03/20 01:23:25;;;;;;;6.28;5.78;;;;;;;8.30;100.00;98844.53;4126730;28;20317;-48
2023/03/20 01:25:27;;;;;;;6.43;5.93;;;;;;;8.28;100.00;98849.38;4118369;28;20891;-48
2023/03/20 01:27:29;;;;;;;6.25;5.75;;;;;;;8.31;100.00;98862.53;4127172;28;20661;-48
2023/03/20 01:29:31;;;;;;;6.35;5.85;;;;;;;8.30;100.00;98861.69;4119227;28;20298;-47
2023/03/20 01:31:32;;;;;;;6.85;6.35;;;;;;;8.30;100.00;98863.59;4104189;28;20701;-48
2023/03/20 01:33:34;;;;;;;6.65;6.18;;;;;;;8.28;100.00;98857.56;4125520;28;20237;-48
2023/03/20 01:35:36;;;;;;;7.00;6.47;;;;;;;8.30;100.00;98863.59;4120495;28;20288;-47
2023/03/20 01:37:38;;;;;;;6.80;6.30;;;;;;;8.32;100.00;98861.47;4116799;28;20206;-48
2023/03/20 01:39:40;;;;;;;8.18;7.38;;;;;;;8.28;100.00;98852.09;4126516;28;20210;-49
2023/03/20 01:41:42;;;;;;;10.77;7.20;;;;;;;8.30;100.00;98855.44;4117758;28;20253;-49
2023/03/20 01:43:44;;;;;;;6.70;6.20;;;;;;;8.29;100.00;98859.22;4117296;28;20317;-50
2023/03/20 01:45:53;;;;;;;6.63;6.03;;;;;;;8.31;100.00;98859.81;4135543;28;20234;-49
2023/03/20 01:47:55;;;;;;;7.65;7.05;;;;;;;8.32;100.00;98847.84;4117467;28;20218;-47
2023/03/20 01:50:30;;;;;;;6.88;6.38;;;;;;;8.34;100.00;98852.00;4118426;28;20282;-48
2023/03/20 01:52:31;;;;;;;6.13;5.63;;;;;;;8.28;100.00;98850.19;4079517;28;20213;-47
2023/03/20 01:54:37;;;;;;;7.20;6.60;;;;;;;8.28;100.00;98857.56;4125149;28;20320;-48
2023/03/20 01:56:44;;;;;;;6.78;6.28;;;;;;;8.34;100.00;98864.84;4103199;28;20302;-48
2023/03/20 01:58:51;;;;;;;7.10;6.50;;;;;;;8.33;100.00;98854.97;4117701;28;20252;-48
2023/03/20 02:00:52;;;;;;;7.18;6.65;;;;;;;8.33;100.00;98866.72;4133633;28;20296;-49
2023/03/20 02:02:55;;;;;;;8.63;7.93;;;;;;;8.36;100.00;98866.25;4103474;28;20290;-50
2023/03/20 02:05:00;;;;;;;6.55;6.05;;;;;;;8.35;100.00;98864.59;4108483;28;20302;-49
2023/03/20 02:07:03;;;;;;;7.53;7.00;;;;;;;8.42;100.00;98865.34;4117872;28;20218;-48
2023/03/20 02:09:05;;;;;;;9.82;8.18;;;;;;;8.45;100.00;98861.31;4135373;28;20216;-48
2023/03/20 02:11:07;;;;;;;10.73;7.28;;;;;;;8.51;100.00;98863.13;4134620;28;20220;-48
2023/03/20 02:13:09;;;;;;;8.23;7.63;;;;;;;8.42;100.00;98859.06;4135228;28;20225;-50
2023/03/20 02:15:13;;;;;;;9.07;8.30;;;;;;;8.42;100.00;98861.78;4135918;28;20784;-48
2023/03/20 02:17:15;;;;;;;12.68;11.57;;;;;;;8.44;100.00;98859.66;4110225;28;20338;-49
2023/03/20 02:20:12;;;;;;;8.88;8.18;;;;;;;8.48;100.00;98863.63;4106322;28;20241;-49
2023/03/20 02:22:31;;;;;;;11.68;10.77;;;;;;;8.55;100.00;98857.00;4093215;28;20296;-49
2023/03/20 02:24:56;;;;;;;12.07;11.05;;;;;;;8.57;100.00;98867.69;4118003;28;20254;-49
2023/03/20 02:27:19;;;;;;;14.13;12.82;;;;;;;8.47;100.00;98873.69;4119982;28;20332;-49
2023/03/20 02:29:27;;;;;;;12.52;11.30;;;;;;;8.52;100.00;98870.25;4126042;28;20245;-48
2023/03/20 02:31:49;;;;;;;11.80;10.60;;;;;;;8.46;100.00;98866.56;4121531;28;20610;-48
2023/03/20 02:34:16;;;;;;;12.05;11.05;;;;;;;8.49;100.00;98870.72;4123504;28;20683;-47
2023/03/20 02:36:54;;;;;;;12.00;11.00;;;;;;;8.50;100.00;98877.84;4139180;28;20202;-48
2023/03/20 02:39:17;;;;;;;12.25;11.15;;;;;;;8.56;100.00;98871.47;4123236;28;20248;-48
2023/03/20 02:41:34;;;;;;;14.15;12.60;;;;;;;8.53;100.00;98871.91;4140802;28;20201;-47
2023/03/20 02:43:44;;;;;;;15.38;14.05;;;;;;;8.51;100.00;98868.59;4122604;28;20237;-47
2023/03/20 02:46:04;;;;;;;17.38;15.40;;;;;;;8.49;100.00;98876.19;4124356;28;20561;-48
2023/03/20 02:48:43;;;;;;;14.02;12.82;;;;;;;8.47;100.00;98875.56;4121729;28;20218;-47
2023/03/20 02:50:50;;;;;;;17.80;14.95;;;;;;;8.51;100.00;98869.44;4120015;28;20297;-47
2023/03/20 02:53:16;;;;;;;17.45;15.65;;;;;;;8.53;100.00;98871.91;4106989;28;20295;-48
2023/03/20 02:55:38;;;;;;;17.00;15.43;;;;;;;8.58;100.00;98869.34;4122064;28;20221;-48
2023/03/20 02:58:07;;;;;;;16.75;15.30;;;;;;;8.52;100.00;98862.06;4120805;28;20217;-47
2023/03/20 03:00:34;;;;;;;16.75;15.23;;;;;;;8.56;100.00;98855.13;4120095;28;20230;-48
2023/03/20 03:02:48;;;;;;;17.52;16.02;;;;;;;8.52;100.00;98848.44;4136058;28;20218;-47
2023/03/20 03:04:52;;;;;;;18.02;16.30;;;;;;;8.53;100.00;98850.09;4128237;28;20202;-47
2023/03/20 03:06:57;;;;;;;19.33;17.38;;;;;;;8.48;100.00;98849.97;4138192;28;20297;-47
2023/03/20 03:09:15;;;;;;;20.10;18.30;;;;;;;8.55;100.00;98848.00;4104638;28;20211;-48
2023/03/20 03:11:18;;;;;;;19.15;17.48;;;;;;;8.54;100.00;98844.44;4107534;28;20202;-47
2023/03/20 03:13:24;;;;;;;18.73;16.92;;;;;;;8.55;100.00;98842.53;4137283;28;20316;-47
2023/03/20 03:15:40;;;;;;;18.90;17.27;;;;;;;8.51;100.00;98830.41;4123456;28;20313;-47
2023/03/20 03:17:43;;;;;;;20.48;18.42;;;;;;;8.54;100.00;98840.88;4128087;28;20878;-48
2023/03/20 03:19:49;;;;;;;19.33;17.30;;;;;;;8.56;100.00;98836.84;4119686;28;20679;-49
2023/03/20 03:21:51;;;;;;;19.38;17.25;;;;;;;8.54;100.00;98840.88;4104760;28;20208;-48
2023/03/20 03:23:53;;;;;;;15.65;14.23;;;;;;;8.54;100.00;98841.69;4104500;28;20262;-47
2023/03/20 03:25:56;;;;;;;14.70;13.35;;;;;;;8.57;100.00;98845.88;4134153;28;20256;-48
2023/03/20 03:28:03;;;;;;;19.38;17.52;;;;;;;8.52;100.00;98845.72;4105462;28;20299;-47
2023/03/20 03:30:09;;;;;;;18.17;16.38;;;;;;;8.58;100.00;98847.53;4121751;28;20234;-47
2023/03/20 03:32:35;;;;;;;20.23;18.52;;;;;;;8.53;100.00;98845.50;4121961;28;20329;-49
2023/03/20 03:34:36;;;;;;;18.27;16.65;;;;;;;8.59;100.00;98849.19;4136607;28;20221;-47
2023/03/20 03:36:47;;;;;;;18.75;16.85;;;;;;;8.60;100.00;98845.41;4137962;28;20639;-47
2023/03/20 03:39:03;;;;;;;17.85;15.85;;;;;;;8.58;100.00;98853.81;4120708;28;20241;-47
2023/03/20 03:41:05;;;;;;;17.05;15.57;;;;;;;8.61;100.00;98852.53;4119353;28;20238;-49
2023/03/20 03:43:13;;;;;;;23.00;18.13;;;;;;;8.66;100.00;98855.38;4119337;28;20236;-47
2023/03/20 03:45:20;;;;;;;18.33;16.58;;;;;;;8.71;100.00;98861.84;4120953;28;20761;-48
2023/03/20 03:47:34;;;;;;;19.52;16.60;;;;;;;8.64;100.00;98873.88;4127306;28;20564;-47
2023/03/20 03:49:39;;;;;;;18.10;16.50;;;;;;;8.62;100.00;98870.56;4121931;28;20207;-47
2023/03/20 03:51:42;;;;;;;17.77;16.13;;;;;;;8.66;100.00;98866.31;4120828;28;20288;-48
2023/03/20 03:53:48;;;;;;;18.90;17.10;;;;;;;8.63;100.00;98866.78;4111376;28;20222;-48
2023/03/20 03:55:53;;;;;;;18.25;16.50;;;;;;;8.60;100.00;98873.53;4137402;28;20680;-48
2023/03/20 03:57:58;;;;;;;18.95;17.23;;;;;;;8.63;100.00;98872.22;4101266;28;20214;-48
2023/03/20 04:00:04;;;;;;;17.30;15.70;;;;;;;8.58;100.00;98866.63;4134297;28;20233;-48
2023/03/20 04:02:07;;;;;;;18.50;17.00;;;;;;;8.64;100.00;98863.81;4135708;28;20655;-47
2023/03/20 04:04:11;;;;;;;19.23;17.30;;;;;;;8.75;100.00;98873.13;4119885;28;20318;-49
2023/03/20 04:06:15;;;;;;;20.00;18.17;;;;;;;8.63;100.00;98872.22;4112601;28;20595;-47
2023/03/20 04:08:16;;;;;;;17.30;15.80;;;;;;;8.67;100.00;98867.97;4119744;28;20209;-47
2023/03/20 04:10:18;;;;;;;20.02;18.13;;;;;;;8.66;100.00;98871.75;4136709;28;20240;-48
2023/03/20 04:12:40;;;;;;;18.92;17.33;;;;;;;8.68;100.00;98872.38;4121417;28;20637;-48
2023/03/20 04:14:42;;;;;;;19.00;17.30;;;;;;;8.71;100.00;98870.03;4126527;28;20265;-48
2023/03/20 04:16:44;;;;;;;18.98;17.27;;;;;;;8.66;100.00;98858.97;4126990;28;20206;-48
2023/03/20 04:18:46;;;;;;;20.98;17.63;;;;;;;8.69;100.00;98871.31;4120551;28;20233;-49
2023/03/20 04:20:48;;;;;;;18.85;17.00;;;;;;;8.77;100.00;98865.53;4119900;28;20748;-48
2023/03/20 04:22:49;;;;;;;18.98;17.27;;;;;;;8.67;100.00;98874.25;4119445;28;20676;-47
2023/03/20 04:24:51;;;;;;;22.25;20.10;;;;;;;8.66;100.00;98872.59;4120564;28;20233;-48
2023/03/20 04:26:53;;;;;;;20.65;18.50;;;;;;;8.69;100.00;98883.03;4137020;28;20218;-48
2023/03/20 04:28:55;;;;;;;19.40;17.40;;;;;;;8.67;100.00;98867.97;4118943;28;20297;-48
2023/03/20 04:31:00;;;;;;;21.63;18.92;;;;;;;8.82;100.00;98876.59;4121598;28;20306;-49
2023/03/20 04:33:02;;;;;;;20.50;18.45;;;;;;;8.77;100.00;98874.56;4120883;28;20232;-47
2023/03/20 04:35:05;;;;;;;20.90;18.90;;;;;;;8.74;100.00;98879.66;4136378;28;20233;-49
2023/03/20 04:37:07;;;;;;;22.55;20.63;;;;;;;8.78;100.00;98873.50;4120096;28;20293;-48
2023/03/20 04:39:09;;;;;;;21.50;19.30;;;;;;;8.81;100.00;98881.22;4122690;28;20639;-49
2023/03/20 04:41:11;;;;;;;21.48;19.55;;;;;;;8.79;100.00;98877.91;4126803;28;20218;-47
2023/03/20 04:43:13;;;;;;;23.25;20.80;;;;;;;8.78;100.00;98880.84;4137165;28;20233;-48
2023/03/20 04:45:15;;;;;;;22.98;20.30;;;;;;;8.73;100.00;98873.34;4132992;28;20298;-48
2023/03/20 04:47:16;;;;;;;21.80;19.48;;;;;;;8.75;100.00;98873.13;4118848;28;20262;-48
2023/03/20 04:49:18;;;;;;;21.40;19.27;;;;;;;8.78;100.00;98876.22;4115081;28;20317;-47
2023/03/20 04:51:20;;;;;;;23.52;21.33;;;;;;;8.81;100.00;98874.94;4116014;28;20253;-47
2023/03/20 04:53:22;;;;;;;22.00;19.70;;;;;;;8.78;100.00;98869.94;4123216;28;20229;-48
2023/03/20 04:55:27;;;;;;;25.63;19.70;;;;;;;8.78;100.00;98878.13;4119480;28;20225;-47
2023/03/20 04:57:30;;;;;;;22.83;20.45;;;;;;;8.72;100.00;98877.16;4136071;28;20220;-48
2023/03/20 04:59:32;;;;;;;22.63;20.27;;;;;;;8.84;100.00;98874.47;4121386;28;20280;-47
2023/03/20 05:01:34;;;;;;;23.60;21.20;;;;;;;8.78;100.00;98886.31;4121040;28;20206;-48
2023/03/20 05:03:35;;;;;;;21.98;19.88;;;;;;;8.74;100.00;98885.09;4138927;28;20990;-48
2023/03/20 05:05:37;;;;;;;22.88;20.40;;;;;;;8.72;100.00;98881.75;4121416;28;20293;-48
2023/03/20 05:07:39;;;;;;;23.63;21.17;;;;;;;8.70;100.00;98881.16;4119326;28;20234;-47
2023/03/20 05:09:40;;;;;;;22.38;20.38;;;;;;;8.70;100.00;98883.88;4121069;28;20272;-48
2023/03/20 05:11:42;;;;;;;25.00;22.63;;;;;;;8.71;100.00;98880.09;4109517;28;20218;-47
2023/03/20 05:13:47;;;;;;;22.25;19.98;;;;;;;8.73;100.00;98883.41;4123560;28;20292;-47
2023/03/20 05:15:48;;;;;;;22.63;20.20;;;;;;;8.80;100.00;98886.88;4121457;28;20233;-48
2023/03/20 05:17:50;;;;;;;27.80;23.17;;;;;;;8.68;100.00;98884.09;4102640;28;21114;-47
2023/03/20 05:19:52;;;;;;;28.05;23.05;;;;;;;8.68;100.00;98886.84;4120442;28;20275;-48
2023/03/20 05:21:54;;;;;;;24.67;22.10;;;;;;;8.68;100.00;98884.09;4119181;28;20618;-47
2023/03/20 05:23:56;;;;;;;28.77;22.17;;;;;;;8.71;100.00;98897.31;4117814;28;20232;-49
2023/03/20 05:25:58;;;;;;;31.83;24.15;;;;;;;8.70;100.00;98881.16;4098450;28;20207;-47
2023/03/20 05:28:00;;;;;;;30.05;24.25;;;;;;;8.64;100.00;98882.91;4116438;28;20206;-48
2023/03/20 05:30:03;;;;;;;27.30;23.73;;;;;;;8.67;100.00;98885.19;4117718;28;20213;-49
2023/03/20 05:32:05;;;;;;;25.00;22.20;;;;;;;8.73;100.00;98891.59;4119546;28;20714;-48
2023/03/20 05:34:07;;;;;;;25.38;22.60;;;;;;;8.73;100.00;98899.78;4134073;28;20240;-48
2023/03/20 05:36:09;;;;;;;26.92;20.35;;;;;;;8.75;100.00;98897.69;4120385;28;20710;-48
2023/03/20 05:38:10;;;;;;;31.08;24.77;;;;;;;8.77;100.00;98898.28;4116731;28;20209;-48
2023/03/20 05:40:14;;;;;;;42.08;25.70;;;;;;;8.71;100.00;98900.03;4102795;28;20256;-48
2023/03/20 05:42:18;;;;;;;30.27;24.17;;;;;;;8.73;100.00;98905.25;4133672;28;20273;-48
2023/03/20 05:44:21;;;;;;;33.15;26.73;;;;;;;8.70;100.00;98900.25;4134151;28;20269;-48
2023/03/20 05:46:22;;;;;;;33.05;24.20;;;;;;;8.66;100.00;98909.94;4122722;28;20296;-48
2023/03/20 05:48:24;;;;;;;34.15;26.63;;;;;;;8.73;100.00;98916.16;4122101;28;20203;-48
2023/03/20 05:50:33;;;;;;;35.08;26.50;;;;;;;8.72;100.00;98925.41;4121373;28;20596;-48
2023/03/20 05:52:35;;;;;;;38.15;27.20;;;;;;;8.72;100.00;98926.25;4121186;28;20309;-47
2023/03/20 05:54:37;;;;;;;40.40;27.98;;;;;;;8.79;100.00;98926.16;4110544;28;20680;-47
2023/03/20 05:56:39;;;;;;;37.75;27.02;;;;;;;8.74;100.00;98923.31;4119071;28;20226;-48
2023/03/20 05:58:41;;;;;;;42.85;28.60;;;;;;;8.71;100.00;98929.19;4127450;28;20217;-47
2023/03/20 06:00:43;;;;;;;42.00;29.17;;;;;;;8.75;100.00;98930.44;4113281;28;20221;-48
2023/03/20 06:02:45;;;;;;;43.92;29.23;;;;;;;8.71;100.00;98930.06;4116069;28;20284;-48
2023/03/20 06:04:48;;;;;;;47.45;28.17;;;;;;;8.66;100.00;98937.22;4121258;28;20229;-49
2023/03/20 06:06:50;;;;;;;44.05;28.00;;;;;;;8.73;100.00;98937.97;4117417;28;20906;-47
2023/03/20 06:08:51;;;;;;;49.00;29.25;;;;;;;8.73;100.00;98927.91;4135006;28;20237;-47
2023/03/20 06:10:54;;;;;;;56.45;30.13;;;;;;;8.75;100.00;98930.44;4123587;28;20232;-49
2023/03/20 06:12:59;;;;;;;52.38;28.30;;;;;;;8.66;100.00;98923.59;4120699;28;20287;-49
2023/03/20 06:15:32;;;;;;;53.38;29.75;;;;;;;8.72;100.00;98936.31;4120145;28;20241;-48
2023/03/20 06:18:01;;;;;;;48.55;27.48;;;;;;;8.64;100.00;98933.91;4110967;28;20683;-48
2023/03/20 06:20:04;;;;;;;52.10;26.13;;;;;;;8.72;100.00;98936.31;4126084;28;20247;-48
2023/03/20 06:22:06;;;;;;;71.88;31.08;;;;;;;8.66;100.00;98926.31;4109334;28;20229;-48
2023/03/20 06:24:08;;;;;;;57.15;31.42;;;;;;;8.66;100.00;98929.88;4123167;28;20231;-50
2023/03/20 06:26:14;;;;;;;59.58;30.48;;;;;;;8.67;100.00;98928.81;4126857;28;20617;-51
2023/03/20 06:28:25;;;;;;;58.45;31.15;;;;;;;8.69;100.00;98931.34;4125429;28;20218;-49
2023/03/20 06:30:27;;;;;;;57.47;30.90;;;;;;;8.62;100.00;98938.75;4124265;28;20212;-48
2023/03/20 06:32:29;;;;;;;55.92;30.75;;;;;;;8.72;100.00;98947.22;4120260;28;20309;-48
2023/03/20 06:34:31;;;;;;;54.88;30.65;;;;;;;8.66;100.00;98942.69;4122907;28;20312;-48
2023/03/20 06:36:33;;;;;;;56.40;29.85;;;;;;;8.65;100.00;98941.88;4122380;28;20722;-48
2023/03/20 06:38:35;;;;;;;49.58;29.67;;;;;;;8.56;100.00;98945.94;4119945;28;20241;-48
2023/03/20 06:40:48;;;;;;;57.20;32.00;;;;;;;8.61;100.00;98934.38;4106568;28;20225;-48
2023/03/20 06:42:50;;;;;;;54.83;29.90;;;;;;;8.62;100.00;98941.50;4112816;28;20238;-48
2023/03/20 06:44:52;;;;;;;64.28;31.52;;;;;;;8.68;100.00;98940.59;4112231;28;20203;-50
2023/03/20 06:46:54;;;;;;;59.60;31.15;;;;;;;8.61;100.00;98954.28;4125285;28;20907;-49
2023/03/20 06:49:07;;;;;;;49.35;29.73;;;;;;;8.65;100.00;98943.75;4120333;28;20642;-48
2023/03/20 06:51:14;;;;;;;48.67;30.67;;;;;;;8.67;100.00;98938.88;4122741;28;20206;-49
2023/03/20 06:53:16;;;;;;;46.05;26.67;;;;;;;8.71;100.00;98946.41;4129095;28;20785;-50
2023/03/20 06:55:18;;;;;;;46.35;27.13;;;;;;;8.71;100.00;98938.22;4106001;28;20219;-48
2023/03/20 06:57:32;;;;;;;37.13;27.02;;;;;;;8.74;100.00;98928.75;4135720;28;20300;-48
2023/03/20 06:59:36;;;;;;;38.67;26.10;;;;;;;8.72;100.00;98939.03;4123410;28;20210;-49
2023/03/20 07:01:41;;;;;;;53.70;28.05;;;;;;;8.69;100.00;98932.16;4126265;28;20583;-48
2023/03/20 07:03:43;;;;;;;52.97;27.77;;;;;;;8.68;100.00;98940.59;4123356;28;20270;-48
2023/03/20 07:05:46;;;;;;;29.98;23.50;;;;;;;8.68;100.00;98941.41;4123311;28;20650;-49
2023/03/20 07:07:48;;;;;;;29.10;24.13;;;;;;;8.69;100.00;98937.59;4123004;28;20213;-50
2023/03/20 07:09:50;;;;;;;38.63;23.50;;;;;;;8.65;100.00;98936.41;4120832;28;20256;-48
2023/03/20 07:11:58;;;;;;;34.00;23.40;;;;;;;8.64;100.00;98931.19;4128044;28;20206;-49
2023/03/20 07:14:00;;;;;;;22.67;19.50;;;;;;;8.67;100.00;98931.56;4103393;28;20254;-50
2023/03/20 07:16:08;;;;;;;32.25;23.15;;;;;;;8.63;100.00;98926.78;4120932;28;20237;-48
2023/03/20 07:18:09;;;;;;;24.27;21.73;;;;;;;8.62;100.00;98936.03;4120827;28;20220;-49
2023/03/20 07:20:12;;;;;;;24.50;21.98;;;;;;;8.59;100.00;98937.31;4118526;28;21058;-49
2023/03/20 07:22:24;;;;;;;36.78;21.13;;;;;;;8.59;100.00;98939.19;4134148;28;20209;-49
2023/03/20 07:24:26;;;;;;;29.75;22.85;;;;;;;8.63;100.00;98960.34;4120575;28;20701;-50
2023/03/20 07:26:28;;;;;;;27.63;21.52;;;;;;;8.66;100.00;98962.63;4124756;28;20210;-49
2023/03/20 07:28:45;;;;;;;26.60;21.67;;;;;;;8.66;100.00;98965.34;4120965;28;20296;-49
2023/03/20 07:30:46;;;;;;;22.80;20.52;;;;;;;8.69;100.00;98958.63;4120231;28;20217;-48
2023/03/20 07:32:53;;;;;;;22.67;20.42;;;;;;;8.68;100.00;98962.41;4128364;28;20218;-48
2023/03/20 07:35:00;;;;;;;24.58;21.65;;;;;;;8.62;100.00;98952.41;4120648;28;20234;-48
2023/03/20 07:37:09;;;;;;;25.17;22.25;;;;;;;8.68;100.00;98959.69;4136001;28;20224;-48
2023/03/20 07:39:13;;;;;;;27.77;22.23;;;;;;;8.78;100.00;98951.78;4122192;28;20210;-48
2023/03/20 07:41:15;;;;;;;27.63;22.25;;;;;;;8.92;100.00;98956.88;4127342;28;20209;-48
2023/03/20 07:43:17;;;;;;;23.92;21.17;;;;;;;8.88;100.00;98965.75;4122954;28;20233;-49
2023/03/20 07:45:37;;;;;;;24.00;20.33;;;;;;;8.90;100.00;98971.78;4123478;28;20289;-48
2023/03/20 07:47:55;;;;;;;22.02;19.02;;;;;;;8.98;100.00;98971.47;4137872;28;20662;-48
2023/03/20 07:49:57;;;;;;;24.08;20.42;;;;;;;9.03;100.00;98985.28;4120211;28;20202;-48
2023/03/20 07:51:59;;;;;;;23.25;19.77;;;;;;;9.06;100.00;98984.81;4106050;28;20217;-49
2023/03/20 07:54:01;;;;;;;22.30;19.67;;;;;;;9.00;100.00;98983.00;4122968;28;20367;-47
2023/03/20 07:56:21;;;;;;;23.48;20.98;;;;;;;9.00;100.00;98983.00;4107415;28;20732;-48
2023/03/20 07:58:23;;;;;;;20.20;17.80;;;;;;;9.01;100.00;98979.22;4126960;28;20305;-49
2023/03/20 08:00:45;;;;;;;20.65;18.90;;;;;;;9.01;100.00;98982.78;4109457;28;20231;-48
2023/03/20 08:02:50;;;;;;;19.55;17.67;;;;;;;9.07;100.00;98986.47;4127128;28;20213;-48
2023/03/20 08:04:56;;;;;;;20.10;18.02;;;;;;;9.07;100.00;98983.75;4120884;28;20289;-48
2023/03/20 08:07:07;;;;;;;17.65;15.95;;;;;;;9.02;100.00;98991.81;4121376;28;20289;-47
2023/03/20 08:09:27;;;;;;;18.48;16.35;;;;;;;9.10;100.00;98994.22;4121241;28;20206;-48
2023/03/20 08:11:52;;;;;;;18.98;17.08;;;;;;;9.13;100.00;98988.28;4123033;28;20707;-49
2023/03/20 08:14:16;;;;;;;18.17;16.45;;;;;;;9.16;100.00;98990.56;4122525;28;20342;-48
2023/03/20 08:16:41;;;;;;;19.55;17.73;;;;;;;9.19;100.00;98990.09;4119812;28;20226;-47
2023/03/20 08:19:05;;;;;;;19.90;17.00;;;;;;;9.32;100.00;98998.13;4125900;28;20218;-49
2023/03/20 08:21:28;;;;;;;20.40;18.25;;;;;;;9.37;100.00;98995.53;4121143;28;20203;-48
2023/03/20 08:23:51;;;;;;;17.67;16.08;;;;;;;9.45;100.00;98997.94;4119051;28;20653;-48
2023/03/20 08:25:53;;;;;;;15.35;14.05;;;;;;;9.40;100.00;99000.53;4121528;28;20299;-48
2023/03/20 08:28:37;;;;;;;15.65;14.23;;;;;;;9.46;100.00;99005.06;4212240;27;20602;-48
2023/03/20 08:31:08;;;;;;;15.20;13.85;;;;;;;9.30;100.00;99005.72;4182659;28;20909;-48
2023/03/20 08:33:20;;;;;;;18.88;17.02;;;;;;;9.34;100.00;99015.13;4188867;28;20253;-48
2023/03/20 08:35:22;;;;;;;18.92;17.02;;;;;;;9.34;100.00;99023.34;4187614;28;20700;-48
2023/03/20 08:37:44;;;;;;;17.98;16.50;;;;;;;9.31;100.00;99019.16;4186067;28;20208;-48
2023/03/20 08:39:48;;;;;;;19.40;17.55;;;;;;;9.41;100.00;99021.34;4190892;28;20210;-50
2023/03/20 08:41:49;;;;;;;19.17;17.38;;;;;;;9.38;100.00;99010.88;4189979;28;20651;-49
2023/03/20 08:43:51;;;;;;;21.00;19.05;;;;;;;9.41;100.00;99013.16;4174652;28;20228;-50
2023/03/20 08:46:03;;;;;;;20.58;18.75;;;;;;;9.50;100.00;99017.22;4184288;28;20684;-49
2023/03/20 08:48:05;;;;;;;19.20;17.50;;;;;;;9.59;100.00;99015.81;4187644;28;20251;-48
2023/03/20 08:50:11;;;;;;;20.75;18.75;;;;;;;9.46;100.00;99018.72;4183871;28;20669;-48
2023/03/20 08:52:13;;;;;;;19.50;17.65;;;;;;;9.47;100.00;99018.50;4178811;28;20774;-47
2023/03/20 08:54:17;;;;;;;19.50;17.80;;;;;;;9.54;100.00;99016.53;4170339;28;20378;-51
2023/03/20 08:56:19;;;;;;;19.95;18.25;;;;;;;9.60;100.00;99012.88;4182401;28;20274;-48
2023/03/20 08:58:44;;;;;;;21.48;19.48;;;;;;;9.72;100.00;99027.41;4202524;28;20211;-49
2023/03/20 09:00:56;;;;;;;20.27;18.33;;;;;;;9.82;100.00;99015.91;4168315;28;20214;-48
2023/03/20 09:02:57;;;;;;;20.70;18.88;;;;;;;10.13;100.00;99023.88;4202218;28;20280;-47
2023/03/20 09:05:00;;;;;;;19.83;18.13;;;;;;;10.64;100.00;99026.78;4188220;28;20589;-48
2023/03/20 09:07:02;;;;;;;18.98;17.38;;;;;;;11.22;100.00;99029.22;4204456;28;20222;-48
2023/03/20 09:09:04;;;;;;;22.42;20.33;;;;;;;12.11;100.00;99021.13;4188140;28;20553;-48
2023/03/20 09:11:06;;;;;;;20.15;18.27;;;;;;;12.44;99.24;99012.91;4184884;28;20242;-48
2023/03/20 09:13:08;;;;;;;18.45;16.55;;;;;;;12.78;97.46;99016.47;4171221;28;20620;-48
2023/03/20 09:15:27;;;;;;;18.85;17.08;;;;;;;13.59;97.68;99014.59;4183216;28;20201;-48
2023/03/20 09:17:30;;;;;;;16.08;14.75;;;;;;;13.58;91.52;99020.34;4180924;28;20200;-48
2023/03/20 09:19:32;;;;;;;17.55;16.05;;;;;;;13.56;89.97;99019.78;4178491;28;20227;-48
2023/03/20 09:21:34;;;;;;;16.25;14.95;;;;;;;13.31;86.13;99022.22;4183443;28;20217;-48
2023/03/20 09:23:36;;;;;;;15.18;13.82;;;;;;;13.26;88.20;99031.22;4180593;28;20315;-48
2023/03/20 09:25:37;;;;;;;12.90;11.90;;;;;;;12.69;87.27;99029.81;4188408;28;20295;-49
2023/03/20 09:27:39;;;;;;;15.43;14.23;;;;;;;12.58;89.58;99029.91;4188673;28;21000;-50
2023/03/20 09:29:42;;;;;;;12.43;11.50;;;;;;;12.00;89.53;99040.41;4187366;28;20226;-47
2023/03/20 09:31:43;;;;;;;13.60;12.50;;;;;;;11.94;92.93;99046.88;4187604;28;20666;-47
2023/03/20 09:33:45;;;;;;;14.52;13.32;;;;;;;11.85;91.83;99043.69;4187421;28;20656;-48
2023/03/20 09:35:47;;;;;;;15.48;13.88;;;;;;;11.76;93.67;99045.16;4187732;28;20203;-48
2023/03/20 09:37:49;;;;;;;13.35;12.35;;;;;;;12.29;93.83;99045.59;4170876;28;20570;-50
2023/03/20 09:39:51;;;;;;;14.48;12.90;;;;;;;12.67;91.53;99040.22;4152001;28;20320;-49
2023/03/20 09:41:53;;;;;;;13.35;12.35;;;;;;;12.87;90.25;99048.78;4175724;28;20247;-49
2023/03/20 09:44:16;;;;;;;11.27;10.27;;;;;;;11.96;89.01;99051.03;4175001;28;20285;-48
2023/03/20 09:46:48;;;;;;;11.27;10.38;;;;;;;12.65;91.00;99041.53;4175521;28;20326;-49